sensor_id;sensor_type;location;lat;lon;timestamp;P1;durP1;ratioP1;P2;durP2;ratioP2
4585;SDS011;2305;50.118;8.952;2023-05-01T00:02:10;8.17;;;2.67;;
4585;SDS011;2305;50.118;8.952;2023-05-01T00:04:38;3.53;;;2.20;;
4585;SDS011;2305;50.118;8.952;2023-05-01T00:07:07;3.60;;;2.30;;
4585;SDS011;2305;50.118;8.952;2023-05-01T00:09:35;5.67;;;2.00;;
4585;SDS011;2305;50.118;8.952;2023-05-01T00:12:03;6.90;;;2.40;;
4585;SDS011;2305;50.118;8.952;2023-05-01T00:14:31;7.23;;;2.40;;
4585;SDS011;2305;50.118;8.952;2023-05-01T00:16:59;4.37;;;1.87;;
4585;SDS011;2305;50.118;8.952;2023-05-01T00:19:28;3.10;;;1.80;;
4585;SDS011;2305;50.118;8.952;2023-05-01T00:21:57;6.43;;;2.30;;
4585;SDS011;2305;50.118;8.952;2023-05-01T00:24:24;4.27;;;1.80;;
4585;SDS011;2305;50.118;8.952;2023-05-01T00:26:53;4.83;;;1.90;;
4585;SDS011;2305;50.118;8.952;2023-05-01T00:29:22;3.00;;;1.80;;
4585;SDS011;2305;50.118;8.952;2023-05-01T00:31:51;3.33;;;1.87;;
4585;SDS011;2305;50.118;8.952;2023-05-01T00:34:20;5.70;;;2.00;;
4585;SDS011;2305;50.118;8.952;2023-05-01T00:36:52;3.83;;;2.07;;
4585;SDS011;2305;50.118;8.952;2023-05-01T00:39:19;4.37;;;1.93;;
4585;SDS011;2305;50.118;8.952;2023-05-01T00:41:48;3.00;;;1.80;;
4585;SDS011;2305;50.118;8.952;2023-05-01T00:44:16;5.87;;;1.80;;
4585;SDS011;2305;50.118;8.952;2023-05-01T00:46:44;4.00;;;2.07;;
4585;SDS011;2305;50.118;8.952;2023-05-01T00:49:14;6.33;;;2.20;;
4585;SDS011;2305;50.118;8.952;2023-05-01T00:51:46;7.53;;;2.07;;
4585;SDS011;2305;50.118;8.952;2023-05-01T00:54:20;2.33;;;1.60;;
4585;SDS011;2305;50.118;8.952;2023-05-01T00:56:50;2.80;;;1.80;;
4585;SDS011;2305;50.118;8.952;2023-05-01T00:59:19;10.63;;;1.80;;
4585;SDS011;2305;50.118;8.952;2023-05-01T01:01:48;3.43;;;2.17;;
4585;SDS011;2305;50.118;8.952;2023-05-01T01:04:20;2.67;;;1.90;;
4585;SDS011;2305;50.118;8.952;2023-05-01T01:06:51;3.27;;;1.80;;
4585;SDS011;2305;50.118;8.952;2023-05-01T01:09:32;4.10;;;2.00;;
4585;SDS011;2305;50.118;8.952;2023-05-01T01:12:11;5.00;;;2.20;;
4585;SDS011;2305;50.118;8.952;2023-05-01T01:14:47;4.83;;;2.20;;
4585;SDS011;2305;50.118;8.952;2023-05-01T01:17:26;3.20;;;2.07;;
4585;SDS011;2305;50.118;8.952;2023-05-01T01:22:50;3.00;;;1.80;;
4585;SDS011;2305;50.118;8.952;2023-05-01T01:25:32;5.00;;;2.20;;
4585;SDS011;2305;50.118;8.952;2023-05-01T01:28:33;3.80;;;1.77;;
4585;SDS011;2305;50.118;8.952;2023-05-01T01:31:19;3.33;;;1.87;;
4585;SDS011;2305;50.118;8.952;2023-05-01T01:36:42;5.33;;;2.10;;
4585;SDS011;2305;50.118;8.952;2023-05-01T01:39:22;5.30;;;2.20;;
4585;SDS011;2305;50.118;8.952;2023-05-01T01:41:56;4.37;;;2.27;;
4585;SDS011;2305;50.118;8.952;2023-05-01T01:44:28;7.00;;;2.50;;
4585;SDS011;2305;50.118;8.952;2023-05-01T01:47:01;3.13;;;1.93;;
4585;SDS011;2305;50.118;8.952;2023-05-01T01:49:36;4.73;;;2.50;;
4585;SDS011;2305;50.118;8.952;2023-05-01T01:52:07;3.30;;;2.20;;
4585;SDS011;2305;50.118;8.952;2023-05-01T01:54:40;3.13;;;2.20;;
4585;SDS011;2305;50.118;8.952;2023-05-01T01:57:13;3.27;;;2.33;;
4585;SDS011;2305;50.118;8.952;2023-05-01T01:59:46;4.20;;;2.70;;
4585;SDS011;2305;50.118;8.952;2023-05-01T02:02:16;4.30;;;2.20;;
4585;SDS011;2305;50.118;8.952;2023-05-01T02:04:50;2.40;;;2.10;;
4585;SDS011;2305;50.118;8.952;2023-05-01T02:07:20;3.37;;;1.93;;
4585;SDS011;2305;50.118;8.952;2023-05-01T02:09:49;5.83;;;2.30;;
4585;SDS011;2305;50.118;8.952;2023-05-01T02:12:20;4.33;;;2.73;;
4585;SDS011;2305;50.118;8.952;2023-05-01T02:14:52;5.00;;;2.43;;
4585;SDS011;2305;50.118;8.952;2023-05-01T02:17:22;3.83;;;2.27;;
4585;SDS011;2305;50.118;8.952;2023-05-01T02:19:54;3.83;;;2.23;;
4585;SDS011;2305;50.118;8.952;2023-05-01T02:22:24;7.27;;;2.60;;
4585;SDS011;2305;50.118;8.952;2023-05-01T02:24:56;4.10;;;2.30;;
4585;SDS011;2305;50.118;8.952;2023-05-01T02:27:29;4.30;;;2.60;;
4585;SDS011;2305;50.118;8.952;2023-05-01T02:29:58;3.63;;;2.70;;
4585;SDS011;2305;50.118;8.952;2023-05-01T02:32:29;10.30;;;2.40;;
4585;SDS011;2305;50.118;8.952;2023-05-01T02:34:58;3.67;;;2.33;;
4585;SDS011;2305;50.118;8.952;2023-05-01T02:37:26;7.10;;;2.90;;
4585;SDS011;2305;50.118;8.952;2023-05-01T02:40:00;3.00;;;2.50;;
4585;SDS011;2305;50.118;8.952;2023-05-01T02:42:32;3.50;;;2.50;;
4585;SDS011;2305;50.118;8.952;2023-05-01T02:45:02;5.77;;;2.37;;
4585;SDS011;2305;50.118;8.952;2023-05-01T02:47:33;4.30;;;2.40;;
4585;SDS011;2305;50.118;8.952;2023-05-01T02:50:06;3.07;;;2.33;;
4585;SDS011;2305;50.118;8.952;2023-05-01T02:52:36;5.30;;;3.00;;
4585;SDS011;2305;50.118;8.952;2023-05-01T02:55:33;6.97;;;3.20;;
4585;SDS011;2305;50.118;8.952;2023-05-01T02:58:04;2.70;;;2.17;;
4585;SDS011;2305;50.118;8.952;2023-05-01T03:00:34;4.23;;;3.00;;
4585;SDS011;2305;50.118;8.952;2023-05-01T03:03:03;3.97;;;2.70;;
4585;SDS011;2305;50.118;8.952;2023-05-01T03:05:33;5.40;;;2.40;;
4585;SDS011;2305;50.118;8.952;2023-05-01T03:08:01;8.13;;;3.07;;
4585;SDS011;2305;50.118;8.952;2023-05-01T03:10:29;2.63;;;1.93;;
4585;SDS011;2305;50.118;8.952;2023-05-01T03:12:59;7.70;;;2.57;;
4585;SDS011;2305;50.118;8.952;2023-05-01T03:15:27;6.40;;;2.83;;
4585;SDS011;2305;50.118;8.952;2023-05-01T03:17:56;6.93;;;2.83;;
4585;SDS011;2305;50.118;8.952;2023-05-01T03:20:24;6.17;;;2.43;;
4585;SDS011;2305;50.118;8.952;2023-05-01T03:22:54;4.63;;;2.47;;
4585;SDS011;2305;50.118;8.952;2023-05-01T03:25:24;5.37;;;2.60;;
4585;SDS011;2305;50.118;8.952;2023-05-01T03:27:54;3.47;;;2.27;;
4585;SDS011;2305;50.118;8.952;2023-05-01T03:30:23;9.83;;;3.20;;
4585;SDS011;2305;50.118;8.952;2023-05-01T03:32:52;5.33;;;2.70;;
4585;SDS011;2305;50.118;8.952;2023-05-01T03:35:28;4.10;;;2.47;;
4585;SDS011;2305;50.118;8.952;2023-05-01T03:37:58;4.80;;;2.30;;
4585;SDS011;2305;50.118;8.952;2023-05-01T03:40:45;10.73;;;2.60;;
4585;SDS011;2305;50.118;8.952;2023-05-01T03:43:48;5.40;;;2.40;;
4585;SDS011;2305;50.118;8.952;2023-05-01T03:46:27;5.67;;;2.80;;
4585;SDS011;2305;50.118;8.952;2023-05-01T03:48:56;4.17;;;2.40;;
4585;SDS011;2305;50.118;8.952;2023-05-01T03:51:26;4.83;;;2.73;;
4585;SDS011;2305;50.118;8.952;2023-05-01T03:53:56;7.60;;;2.87;;
4585;SDS011;2305;50.118;8.952;2023-05-01T03:56:30;6.13;;;3.10;;
4585;SDS011;2305;50.118;8.952;2023-05-01T03:59:02;5.20;;;3.30;;
4585;SDS011;2305;50.118;8.952;2023-05-01T04:01:32;3.90;;;2.40;;
4585;SDS011;2305;50.118;8.952;2023-05-01T04:04:00;4.70;;;2.70;;
4585;SDS011;2305;50.118;8.952;2023-05-01T04:06:29;5.77;;;2.73;;
4585;SDS011;2305;50.118;8.952;2023-05-01T04:08:59;3.20;;;2.50;;
4585;SDS011;2305;50.118;8.952;2023-05-01T04:11:28;10.33;;;2.80;;
4585;SDS011;2305;50.118;8.952;2023-05-01T04:13:58;5.13;;;3.30;;
4585;SDS011;2305;50.118;8.952;2023-05-01T04:16:26;4.77;;;2.47;;
4585;SDS011;2305;50.118;8.952;2023-05-01T04:18:55;10.90;;;3.20;;
4585;SDS011;2305;50.118;8.952;2023-05-01T04:21:23;7.90;;;3.13;;
4585;SDS011;2305;50.118;8.952;2023-05-01T04:23:52;3.50;;;2.57;;
4585;SDS011;2305;50.118;8.952;2023-05-01T04:26:22;6.63;;;2.60;;
4585;SDS011;2305;50.118;8.952;2023-05-01T04:28:50;3.50;;;2.33;;
4585;SDS011;2305;50.118;8.952;2023-05-01T04:31:21;4.50;;;2.60;;
4585;SDS011;2305;50.118;8.952;2023-05-01T04:33:52;3.37;;;2.77;;
4585;SDS011;2305;50.118;8.952;2023-05-01T04:36:21;3.27;;;2.77;;
4585;SDS011;2305;50.118;8.952;2023-05-01T04:38:49;6.63;;;2.50;;
4585;SDS011;2305;50.118;8.952;2023-05-01T04:41:17;4.50;;;2.63;;
4585;SDS011;2305;50.118;8.952;2023-05-01T04:43:48;4.33;;;2.70;;
4585;SDS011;2305;50.118;8.952;2023-05-01T04:46:17;3.93;;;2.70;;
4585;SDS011;2305;50.118;8.952;2023-05-01T04:48:46;4.57;;;2.97;;
4585;SDS011;2305;50.118;8.952;2023-05-01T04:51:14;6.67;;;3.00;;
4585;SDS011;2305;50.118;8.952;2023-05-01T04:53:42;3.47;;;2.80;;
4585;SDS011;2305;50.118;8.952;2023-05-01T04:56:20;4.43;;;3.00;;
4585;SDS011;2305;50.118;8.952;2023-05-01T04:58:54;4.17;;;2.73;;
4585;SDS011;2305;50.118;8.952;2023-05-01T05:01:27;3.37;;;2.70;;
4585;SDS011;2305;50.118;8.952;2023-05-01T05:03:58;5.70;;;3.30;;
4585;SDS011;2305;50.118;8.952;2023-05-01T05:06:28;6.83;;;3.83;;
4585;SDS011;2305;50.118;8.952;2023-05-01T05:08:57;7.50;;;4.53;;
4585;SDS011;2305;50.118;8.952;2023-05-01T05:11:25;6.87;;;3.60;;
4585;SDS011;2305;50.118;8.952;2023-05-01T05:14:06;6.10;;;3.50;;
4585;SDS011;2305;50.118;8.952;2023-05-01T05:16:36;6.20;;;3.20;;
4585;SDS011;2305;50.118;8.952;2023-05-01T05:19:05;5.97;;;3.20;;
4585;SDS011;2305;50.118;8.952;2023-05-01T05:21:36;4.90;;;2.87;;
4585;SDS011;2305;50.118;8.952;2023-05-01T05:24:04;7.20;;;3.30;;
4585;SDS011;2305;50.118;8.952;2023-05-01T05:26:32;4.10;;;2.73;;
4585;SDS011;2305;50.118;8.952;2023-05-01T05:32:00;5.87;;;3.53;;
4585;SDS011;2305;50.118;8.952;2023-05-01T05:34:29;7.90;;;3.43;;
4585;SDS011;2305;50.118;8.952;2023-05-01T05:36:58;5.87;;;3.30;;
4585;SDS011;2305;50.118;8.952;2023-05-01T05:39:27;7.93;;;3.40;;
4585;SDS011;2305;50.118;8.952;2023-05-01T05:41:56;8.83;;;3.40;;
4585;SDS011;2305;50.118;8.952;2023-05-01T05:44:24;4.73;;;3.27;;
4585;SDS011;2305;50.118;8.952;2023-05-01T05:46:54;5.30;;;3.17;;
4585;SDS011;2305;50.118;8.952;2023-05-01T05:49:28;5.83;;;3.00;;
4585;SDS011;2305;50.118;8.952;2023-05-01T05:51:56;11.53;;;3.77;;
4585;SDS011;2305;50.118;8.952;2023-05-01T05:54:24;5.07;;;3.23;;
4585;SDS011;2305;50.118;8.952;2023-05-01T05:56:52;6.07;;;3.17;;
4585;SDS011;2305;50.118;8.952;2023-05-01T05:59:20;12.00;;;3.50;;
4585;SDS011;2305;50.118;8.952;2023-05-01T06:01:49;6.30;;;3.30;;
4585;SDS011;2305;50.118;8.952;2023-05-01T06:04:19;6.13;;;3.10;;
4585;SDS011;2305;50.118;8.952;2023-05-01T06:06:51;9.10;;;4.20;;
4585;SDS011;2305;50.118;8.952;2023-05-01T06:09:19;5.07;;;3.50;;
4585;SDS011;2305;50.118;8.952;2023-05-01T06:11:47;6.00;;;3.73;;
4585;SDS011;2305;50.118;8.952;2023-05-01T06:14:18;6.40;;;3.53;;
4585;SDS011;2305;50.118;8.952;2023-05-01T06:16:47;6.97;;;3.80;;
4585;SDS011;2305;50.118;8.952;2023-05-01T06:19:16;6.00;;;4.00;;
4585;SDS011;2305;50.118;8.952;2023-05-01T06:21:51;11.77;;;4.10;;
4585;SDS011;2305;50.118;8.952;2023-05-01T06:24:19;6.37;;;3.50;;
4585;SDS011;2305;50.118;8.952;2023-05-01T06:26:51;5.83;;;3.27;;
4585;SDS011;2305;50.118;8.952;2023-05-01T06:29:19;8.60;;;3.60;;
4585;SDS011;2305;50.118;8.952;2023-05-01T06:31:47;6.93;;;3.70;;
4585;SDS011;2305;50.118;8.952;2023-05-01T06:34:16;5.33;;;3.60;;
4585;SDS011;2305;50.118;8.952;2023-05-01T06:36:52;6.10;;;3.40;;
4585;SDS011;2305;50.118;8.952;2023-05-01T06:39:21;4.63;;;3.03;;
4585;SDS011;2305;50.118;8.952;2023-05-01T06:41:49;6.13;;;3.63;;
4585;SDS011;2305;50.118;8.952;2023-05-01T06:44:28;5.70;;;3.60;;
4585;SDS011;2305;50.118;8.952;2023-05-01T06:47:00;5.50;;;3.23;;
4585;SDS011;2305;50.118;8.952;2023-05-01T06:49:28;9.37;;;4.03;;
4585;SDS011;2305;50.118;8.952;2023-05-01T06:51:59;7.50;;;3.77;;
4585;SDS011;2305;50.118;8.952;2023-05-01T06:54:28;6.43;;;3.77;;
4585;SDS011;2305;50.118;8.952;2023-05-01T06:56:56;6.70;;;3.17;;
4585;SDS011;2305;50.118;8.952;2023-05-01T06:59:24;8.00;;;3.67;;
4585;SDS011;2305;50.118;8.952;2023-05-01T07:01:52;7.23;;;3.30;;
4585;SDS011;2305;50.118;8.952;2023-05-01T07:04:20;8.07;;;3.70;;
4585;SDS011;2305;50.118;8.952;2023-05-01T07:06:49;7.07;;;3.53;;
4585;SDS011;2305;50.118;8.952;2023-05-01T07:09:19;7.73;;;4.37;;
4585;SDS011;2305;50.118;8.952;2023-05-01T07:11:48;5.03;;;3.57;;
4585;SDS011;2305;50.118;8.952;2023-05-01T07:14:16;7.60;;;3.57;;
4585;SDS011;2305;50.118;8.952;2023-05-01T07:16:44;4.50;;;3.50;;
4585;SDS011;2305;50.118;8.952;2023-05-01T07:19:12;5.27;;;3.30;;
4585;SDS011;2305;50.118;8.952;2023-05-01T07:21:40;12.70;;;3.97;;
4585;SDS011;2305;50.118;8.952;2023-05-01T07:24:08;7.17;;;3.93;;
4585;SDS011;2305;50.118;8.952;2023-05-01T07:26:39;4.97;;;3.60;;
4585;SDS011;2305;50.118;8.952;2023-05-01T07:29:07;6.77;;;4.03;;
4585;SDS011;2305;50.118;8.952;2023-05-01T07:31:35;8.60;;;3.80;;
4585;SDS011;2305;50.118;8.952;2023-05-01T07:34:04;7.90;;;3.97;;
4585;SDS011;2305;50.118;8.952;2023-05-01T07:36:32;5.67;;;3.83;;
4585;SDS011;2305;50.118;8.952;2023-05-01T07:39:00;6.10;;;3.87;;
4585;SDS011;2305;50.118;8.952;2023-05-01T07:41:29;8.40;;;4.13;;
4585;SDS011;2305;50.118;8.952;2023-05-01T07:43:59;5.13;;;3.33;;
4585;SDS011;2305;50.118;8.952;2023-05-01T07:46:27;9.30;;;4.03;;
4585;SDS011;2305;50.118;8.952;2023-05-01T07:48:55;6.60;;;3.70;;
4585;SDS011;2305;50.118;8.952;2023-05-01T07:51:37;5.27;;;3.60;;
4585;SDS011;2305;50.118;8.952;2023-05-01T07:54:05;6.63;;;3.43;;
4585;SDS011;2305;50.118;8.952;2023-05-01T07:56:34;7.80;;;3.70;;
4585;SDS011;2305;50.118;8.952;2023-05-01T07:59:03;6.33;;;3.50;;
4585;SDS011;2305;50.118;8.952;2023-05-01T08:01:32;18.80;;;4.23;;
4585;SDS011;2305;50.118;8.952;2023-05-01T08:04:00;6.33;;;3.33;;
4585;SDS011;2305;50.118;8.952;2023-05-01T08:06:28;6.10;;;3.40;;
4585;SDS011;2305;50.118;8.952;2023-05-01T08:08:57;6.47;;;3.80;;
4585;SDS011;2305;50.118;8.952;2023-05-01T08:11:25;9.20;;;4.07;;
4585;SDS011;2305;50.118;8.952;2023-05-01T08:13:57;6.67;;;3.83;;
4585;SDS011;2305;50.118;8.952;2023-05-01T08:16:27;8.00;;;4.00;;
4585;SDS011;2305;50.118;8.952;2023-05-01T08:18:55;6.10;;;3.57;;
4585;SDS011;2305;50.118;8.952;2023-05-01T08:21:23;8.23;;;3.77;;
4585;SDS011;2305;50.118;8.952;2023-05-01T08:23:53;6.93;;;3.20;;
4585;SDS011;2305;50.118;8.952;2023-05-01T08:26:22;5.63;;;3.70;;
4585;SDS011;2305;50.118;8.952;2023-05-01T08:28:50;5.63;;;3.47;;
4585;SDS011;2305;50.118;8.952;2023-05-01T08:31:18;6.27;;;3.80;;
4585;SDS011;2305;50.118;8.952;2023-05-01T08:33:48;6.50;;;3.77;;
4585;SDS011;2305;50.118;8.952;2023-05-01T08:36:19;8.13;;;4.27;;
4585;SDS011;2305;50.118;8.952;2023-05-01T08:38:47;9.73;;;3.60;;
4585;SDS011;2305;50.118;8.952;2023-05-01T08:41:15;5.87;;;3.40;;
4585;SDS011;2305;50.118;8.952;2023-05-01T08:43:48;6.87;;;3.50;;
4585;SDS011;2305;50.118;8.952;2023-05-01T08:46:18;5.97;;;3.57;;
4585;SDS011;2305;50.118;8.952;2023-05-01T08:48:55;4.43;;;3.03;;
4585;SDS011;2305;50.118;8.952;2023-05-01T08:51:26;5.43;;;3.90;;
4585;SDS011;2305;50.118;8.952;2023-05-01T08:53:56;5.93;;;3.43;;
4585;SDS011;2305;50.118;8.952;2023-05-01T08:56:26;6.30;;;3.60;;
4585;SDS011;2305;50.118;8.952;2023-05-01T08:58:57;4.87;;;3.40;;
4585;SDS011;2305;50.118;8.952;2023-05-01T09:01:27;5.80;;;3.63;;
4585;SDS011;2305;50.118;8.952;2023-05-01T09:04:02;3.63;;;3.20;;
4585;SDS011;2305;50.118;8.952;2023-05-01T09:06:30;7.10;;;3.57;;
4585;SDS011;2305;50.118;8.952;2023-05-01T09:08:58;7.87;;;3.60;;
4585;SDS011;2305;50.118;8.952;2023-05-01T09:11:27;4.60;;;3.50;;
4585;SDS011;2305;50.118;8.952;2023-05-01T09:13:56;4.47;;;3.30;;
4585;SDS011;2305;50.118;8.952;2023-05-01T09:16:27;3.83;;;3.40;;
4585;SDS011;2305;50.118;8.952;2023-05-01T09:18:56;3.57;;;3.13;;
4585;SDS011;2305;50.118;8.952;2023-05-01T09:21:27;5.03;;;3.30;;
4585;SDS011;2305;50.118;8.952;2023-05-01T09:23:57;5.87;;;4.23;;
4585;SDS011;2305;50.118;8.952;2023-05-01T09:26:25;7.20;;;4.40;;
4585;SDS011;2305;50.118;8.952;2023-05-01T09:28:53;7.67;;;3.90;;
4585;SDS011;2305;50.118;8.952;2023-05-01T09:31:24;8.73;;;5.13;;
4585;SDS011;2305;50.118;8.952;2023-05-01T09:33:55;4.87;;;3.20;;
4585;SDS011;2305;50.118;8.952;2023-05-01T09:36:24;5.07;;;3.47;;
4585;SDS011;2305;50.118;8.952;2023-05-01T09:38:56;11.10;;;4.10;;
4585;SDS011;2305;50.118;8.952;2023-05-01T09:41:29;6.70;;;3.50;;
4585;SDS011;2305;50.118;8.952;2023-05-01T09:43:58;4.70;;;3.40;;
4585;SDS011;2305;50.118;8.952;2023-05-01T09:46:27;5.37;;;3.40;;
4585;SDS011;2305;50.118;8.952;2023-05-01T09:48:55;5.70;;;3.40;;
4585;SDS011;2305;50.118;8.952;2023-05-01T09:51:28;6.20;;;3.93;;
4585;SDS011;2305;50.118;8.952;2023-05-01T09:53:57;8.67;;;4.07;;
4585;SDS011;2305;50.118;8.952;2023-05-01T09:56:27;6.43;;;3.40;;
4585;SDS011;2305;50.118;8.952;2023-05-01T09:58:57;6.13;;;3.70;;
4585;SDS011;2305;50.118;8.952;2023-05-01T10:01:36;6.30;;;3.70;;
4585;SDS011;2305;50.118;8.952;2023-05-01T10:04:06;5.37;;;3.83;;
4585;SDS011;2305;50.118;8.952;2023-05-01T10:06:37;4.27;;;3.47;;
4585;SDS011;2305;50.118;8.952;2023-05-01T10:09:06;4.70;;;3.40;;
4585;SDS011;2305;50.118;8.952;2023-05-01T10:11:47;7.87;;;3.60;;
4585;SDS011;2305;50.118;8.952;2023-05-01T10:14:17;6.87;;;3.90;;
4585;SDS011;2305;50.118;8.952;2023-05-01T10:16:46;6.63;;;3.77;;
4585;SDS011;2305;50.118;8.952;2023-05-01T10:19:16;4.23;;;3.77;;
4585;SDS011;2305;50.118;8.952;2023-05-01T10:21:45;4.43;;;3.50;;
4585;SDS011;2305;50.118;8.952;2023-05-01T10:24:13;4.37;;;3.10;;
4585;SDS011;2305;50.118;8.952;2023-05-01T10:26:43;5.70;;;4.00;;
4585;SDS011;2305;50.118;8.952;2023-05-01T10:29:11;5.37;;;3.40;;
4585;SDS011;2305;50.118;8.952;2023-05-01T10:31:39;5.03;;;3.50;;
4585;SDS011;2305;50.118;8.952;2023-05-01T10:34:08;8.43;;;4.20;;
4585;SDS011;2305;50.118;8.952;2023-05-01T10:36:40;8.73;;;3.90;;
4585;SDS011;2305;50.118;8.952;2023-05-01T10:42:05;6.03;;;3.63;;
4585;SDS011;2305;50.118;8.952;2023-05-01T10:44:37;6.73;;;4.50;;
4585;SDS011;2305;50.118;8.952;2023-05-01T10:50:10;6.33;;;3.87;;
4585;SDS011;2305;50.118;8.952;2023-05-01T10:55:50;8.20;;;3.93;;
4585;SDS011;2305;50.118;8.952;2023-05-01T11:01:31;5.07;;;3.47;;
4585;SDS011;2305;50.118;8.952;2023-05-01T11:04:01;8.13;;;4.33;;
4585;SDS011;2305;50.118;8.952;2023-05-01T11:06:33;5.20;;;3.50;;
4585;SDS011;2305;50.118;8.952;2023-05-01T11:09:34;6.87;;;4.43;;
4585;SDS011;2305;50.118;8.952;2023-05-01T11:12:05;3.90;;;3.33;;
4585;SDS011;2305;50.118;8.952;2023-05-01T11:17:45;5.43;;;3.73;;
4585;SDS011;2305;50.118;8.952;2023-05-01T11:23:24;5.03;;;3.30;;
4585;SDS011;2305;50.118;8.952;2023-05-01T11:26:00;6.83;;;4.27;;
4585;SDS011;2305;50.118;8.952;2023-05-01T11:28:33;5.10;;;4.00;;
4585;SDS011;2305;50.118;8.952;2023-05-01T11:31:02;5.40;;;4.13;;
4585;SDS011;2305;50.118;8.952;2023-05-01T11:33:30;7.27;;;3.70;;
4585;SDS011;2305;50.118;8.952;2023-05-01T11:36:02;7.90;;;4.47;;
4585;SDS011;2305;50.118;8.952;2023-05-01T11:38:31;5.17;;;3.30;;
4585;SDS011;2305;50.118;8.952;2023-05-01T11:41:00;4.93;;;3.77;;
4585;SDS011;2305;50.118;8.952;2023-05-01T11:43:30;5.23;;;3.40;;
4585;SDS011;2305;50.118;8.952;2023-05-01T11:45:59;8.03;;;3.90;;
4585;SDS011;2305;50.118;8.952;2023-05-01T11:48:30;9.30;;;3.90;;
4585;SDS011;2305;50.118;8.952;2023-05-01T11:50:58;4.27;;;3.70;;
4585;SDS011;2305;50.118;8.952;2023-05-01T11:53:26;4.20;;;3.40;;
4585;SDS011;2305;50.118;8.952;2023-05-01T11:55:54;3.80;;;3.33;;
4585;SDS011;2305;50.118;8.952;2023-05-01T11:58:34;6.50;;;3.80;;
4585;SDS011;2305;50.118;8.952;2023-05-01T12:01:05;5.60;;;3.30;;
4585;SDS011;2305;50.118;8.952;2023-05-01T12:03:40;7.63;;;3.90;;
4585;SDS011;2305;50.118;8.952;2023-05-01T12:06:09;9.80;;;4.60;;
4585;SDS011;2305;50.118;8.952;2023-05-01T12:08:43;6.00;;;4.10;;
4585;SDS011;2305;50.118;8.952;2023-05-01T12:11:16;7.83;;;3.77;;
4585;SDS011;2305;50.118;8.952;2023-05-01T12:13:48;8.60;;;4.00;;
4585;SDS011;2305;50.118;8.952;2023-05-01T12:16:18;4.70;;;3.67;;
4585;SDS011;2305;50.118;8.952;2023-05-01T12:18:46;5.43;;;3.77;;
4585;SDS011;2305;50.118;8.952;2023-05-01T12:21:15;6.80;;;4.43;;
4585;SDS011;2305;50.118;8.952;2023-05-01T12:23:47;4.40;;;3.63;;
4585;SDS011;2305;50.118;8.952;2023-05-01T12:26:16;7.00;;;3.53;;
4585;SDS011;2305;50.118;8.952;2023-05-01T12:28:54;5.80;;;3.57;;
4585;SDS011;2305;50.118;8.952;2023-05-01T12:31:25;6.57;;;3.50;;
4585;SDS011;2305;50.118;8.952;2023-05-01T12:33:54;6.40;;;3.90;;
4585;SDS011;2305;50.118;8.952;2023-05-01T12:36:25;5.07;;;3.43;;
4585;SDS011;2305;50.118;8.952;2023-05-01T12:38:55;4.63;;;3.73;;
4585;SDS011;2305;50.118;8.952;2023-05-01T12:41:35;5.30;;;3.57;;
4585;SDS011;2305;50.118;8.952;2023-05-01T12:44:15;6.20;;;4.23;;
4585;SDS011;2305;50.118;8.952;2023-05-01T12:46:52;4.93;;;3.50;;
4585;SDS011;2305;50.118;8.952;2023-05-01T12:49:22;4.80;;;3.37;;
4585;SDS011;2305;50.118;8.952;2023-05-01T12:51:54;6.13;;;3.87;;
4585;SDS011;2305;50.118;8.952;2023-05-01T12:54:26;4.77;;;3.37;;
4585;SDS011;2305;50.118;8.952;2023-05-01T12:57:03;4.30;;;3.53;;
4585;SDS011;2305;50.118;8.952;2023-05-01T12:59:34;6.30;;;4.17;;
4585;SDS011;2305;50.118;8.952;2023-05-01T13:02:04;10.17;;;4.17;;
4585;SDS011;2305;50.118;8.952;2023-05-01T13:04:34;6.03;;;3.13;;
4585;SDS011;2305;50.118;8.952;2023-05-01T13:07:08;4.53;;;3.60;;
4585;SDS011;2305;50.118;8.952;2023-05-01T13:09:38;4.53;;;3.10;;
4585;SDS011;2305;50.118;8.952;2023-05-01T13:12:06;6.30;;;3.47;;
4585;SDS011;2305;50.118;8.952;2023-05-01T13:14:35;6.57;;;4.10;;
4585;SDS011;2305;50.118;8.952;2023-05-01T13:17:06;9.43;;;3.20;;
4585;SDS011;2305;50.118;8.952;2023-05-01T13:19:35;6.37;;;3.80;;
4585;SDS011;2305;50.118;8.952;2023-05-01T13:22:04;6.60;;;3.60;;
4585;SDS011;2305;50.118;8.952;2023-05-01T13:24:36;6.37;;;2.93;;
4585;SDS011;2305;50.118;8.952;2023-05-01T13:27:06;4.47;;;3.43;;
4585;SDS011;2305;50.118;8.952;2023-05-01T13:29:34;3.83;;;3.00;;
4585;SDS011;2305;50.118;8.952;2023-05-01T13:32:03;6.20;;;3.00;;
4585;SDS011;2305;50.118;8.952;2023-05-01T13:34:34;4.80;;;3.10;;
4585;SDS011;2305;50.118;8.952;2023-05-01T13:37:03;5.13;;;3.30;;
4585;SDS011;2305;50.118;8.952;2023-05-01T13:39:31;5.13;;;3.10;;
4585;SDS011;2305;50.118;8.952;2023-05-01T13:41:59;5.60;;;3.27;;
4585;SDS011;2305;50.118;8.952;2023-05-01T13:44:31;3.23;;;2.50;;
4585;SDS011;2305;50.118;8.952;2023-05-01T13:47:02;3.67;;;3.13;;
4585;SDS011;2305;50.118;8.952;2023-05-01T13:49:30;6.03;;;3.07;;
4585;SDS011;2305;50.118;8.952;2023-05-01T13:51:59;4.40;;;2.73;;
4585;SDS011;2305;50.118;8.952;2023-05-01T13:54:27;4.67;;;2.83;;
4585;SDS011;2305;50.118;8.952;2023-05-01T13:56:56;5.40;;;2.80;;
4585;SDS011;2305;50.118;8.952;2023-05-01T13:59:24;8.87;;;2.77;;
4585;SDS011;2305;50.118;8.952;2023-05-01T14:01:52;4.60;;;2.80;;
4585;SDS011;2305;50.118;8.952;2023-05-01T14:04:22;7.30;;;3.27;;
4585;SDS011;2305;50.118;8.952;2023-05-01T14:06:49;3.43;;;2.57;;
4585;SDS011;2305;50.118;8.952;2023-05-01T14:09:19;3.67;;;2.87;;
4585;SDS011;2305;50.118;8.952;2023-05-01T14:11:56;3.90;;;2.90;;
4585;SDS011;2305;50.118;8.952;2023-05-01T14:14:25;4.97;;;3.00;;
4585;SDS011;2305;50.118;8.952;2023-05-01T14:16:52;3.53;;;2.93;;
4585;SDS011;2305;50.118;8.952;2023-05-01T14:19:21;5.60;;;2.90;;
4585;SDS011;2305;50.118;8.952;2023-05-01T14:21:49;6.00;;;3.00;;
4585;SDS011;2305;50.118;8.952;2023-05-01T14:24:17;4.10;;;2.97;;
4585;SDS011;2305;50.118;8.952;2023-05-01T14:26:46;5.13;;;3.00;;
4585;SDS011;2305;50.118;8.952;2023-05-01T14:29:21;6.00;;;2.67;;
4585;SDS011;2305;50.118;8.952;2023-05-01T14:32:00;3.33;;;2.40;;
4585;SDS011;2305;50.118;8.952;2023-05-01T14:34:30;4.27;;;2.57;;
4585;SDS011;2305;50.118;8.952;2023-05-01T14:36:59;4.00;;;3.37;;
4585;SDS011;2305;50.118;8.952;2023-05-01T14:39:28;4.83;;;2.23;;
4585;SDS011;2305;50.118;8.952;2023-05-01T14:42:01;3.30;;;2.60;;
4585;SDS011;2305;50.118;8.952;2023-05-01T14:44:31;7.60;;;3.27;;
4585;SDS011;2305;50.118;8.952;2023-05-01T14:47:00;5.57;;;3.70;;
4585;SDS011;2305;50.118;8.952;2023-05-01T14:49:29;5.00;;;3.17;;
4585;SDS011;2305;50.118;8.952;2023-05-01T14:51:57;5.33;;;2.60;;
4585;SDS011;2305;50.118;8.952;2023-05-01T14:54:26;6.83;;;4.50;;
4585;SDS011;2305;50.118;8.952;2023-05-01T14:56:56;2.57;;;2.30;;
4585;SDS011;2305;50.118;8.952;2023-05-01T14:59:28;3.83;;;3.20;;
4585;SDS011;2305;50.118;8.952;2023-05-01T15:01:56;5.13;;;2.93;;
4585;SDS011;2305;50.118;8.952;2023-05-01T15:04:25;3.63;;;2.77;;
4585;SDS011;2305;50.118;8.952;2023-05-01T15:06:53;3.10;;;2.60;;
4585;SDS011;2305;50.118;8.952;2023-05-01T15:09:22;3.20;;;2.90;;
4585;SDS011;2305;50.118;8.952;2023-05-01T15:11:50;8.57;;;3.97;;
4585;SDS011;2305;50.118;8.952;2023-05-01T15:14:21;3.77;;;2.77;;
4585;SDS011;2305;50.118;8.952;2023-05-01T15:16:50;3.00;;;2.43;;
4585;SDS011;2305;50.118;8.952;2023-05-01T15:19:18;3.43;;;2.70;;
4585;SDS011;2305;50.118;8.952;2023-05-01T15:21:47;5.47;;;2.80;;
4585;SDS011;2305;50.118;8.952;2023-05-01T15:24:18;3.80;;;2.33;;
4585;SDS011;2305;50.118;8.952;2023-05-01T15:26:48;6.23;;;2.70;;
4585;SDS011;2305;50.118;8.952;2023-05-01T15:29:17;2.87;;;2.10;;
4585;SDS011;2305;50.118;8.952;2023-05-01T15:31:45;3.40;;;2.53;;
4585;SDS011;2305;50.118;8.952;2023-05-01T15:34:22;4.60;;;2.30;;
4585;SDS011;2305;50.118;8.952;2023-05-01T15:36:50;6.00;;;2.67;;
4585;SDS011;2305;50.118;8.952;2023-05-01T15:39:18;3.20;;;2.43;;
4585;SDS011;2305;50.118;8.952;2023-05-01T15:41:47;6.27;;;2.73;;
4585;SDS011;2305;50.118;8.952;2023-05-01T15:44:15;5.60;;;2.43;;
4585;SDS011;2305;50.118;8.952;2023-05-01T15:46:45;4.40;;;2.40;;
4585;SDS011;2305;50.118;8.952;2023-05-01T15:49:14;5.83;;;4.07;;
4585;SDS011;2305;50.118;8.952;2023-05-01T15:51:45;5.40;;;3.03;;
4585;SDS011;2305;50.118;8.952;2023-05-01T15:54:13;4.53;;;3.30;;
4585;SDS011;2305;50.118;8.952;2023-05-01T15:56:41;3.30;;;2.67;;
4585;SDS011;2305;50.118;8.952;2023-05-01T15:59:09;5.37;;;3.00;;
4585;SDS011;2305;50.118;8.952;2023-05-01T16:01:38;3.23;;;2.47;;
4585;SDS011;2305;50.118;8.952;2023-05-01T16:04:07;3.93;;;2.73;;